<?xml version="1.0" encoding="UTF-8" standalone="no" ?>
<gpx xmlns="http://www.topografix.com/GPX/1/1" xmlns:xsi="http://www.w3.org/2001/XMLSchema-instance" xsi:schemaLocation="http://www.topografix.com/GPX/1/1 http://www.topografix.com/GPX/1/1/gpx.xsd" version="1.1" creator="VisuGPX - https://www.visugpx.com">
  <metadata>
    <name>13241204-PAT CHAMROUSSE</name>
  </metadata>
  <trk>
    <name><![CDATA[13241204-PAT CHAMROUSSE]]></name>
    <trkseg>
      <trkpt lat="45.10461" lon="5.87698">
        <ele>1735</ele>
        <time>2021-06-15T06:29:26Z</time>
      </trkpt>
      <trkpt lat="45.10461" lon="5.87723">
        <ele>1738</ele>
        <time>2021-06-15T06:29:50Z</time>
      </trkpt>
      <trkpt lat="45.10454" lon="5.87749">
        <ele>1740</ele>
        <time>2021-06-15T06:30:16Z</time>
      </trkpt>
      <trkpt lat="45.10443" lon="5.87818">
        <ele>1747</ele>
        <time>2021-06-15T06:31:22Z</time>
      </trkpt>
      <trkpt lat="45.10445" lon="5.87826">
        <ele>1748</ele>
        <time>2021-06-15T06:31:30Z</time>
      </trkpt>
      <trkpt lat="45.10452" lon="5.87836">
        <ele>1750</ele>
        <time>2021-06-15T06:31:44Z</time>
      </trkpt>
      <trkpt lat="45.10459" lon="5.87841">
        <ele>1752</ele>
        <time>2021-06-15T06:31:54Z</time>
      </trkpt>
      <trkpt lat="45.1047" lon="5.87839">
        <ele>1753</ele>
        <time>2021-06-15T06:32:09Z</time>
      </trkpt>
      <trkpt lat="45.10473" lon="5.87842">
        <ele>1754</ele>
        <time>2021-06-15T06:32:14Z</time>
      </trkpt>
      <trkpt lat="45.10482" lon="5.87864">
        <ele>1758</ele>
        <time>2021-06-15T06:32:38Z</time>
      </trkpt>
      <trkpt lat="45.10482" lon="5.87888">
        <ele>1761</ele>
        <time>2021-06-15T06:33:00Z</time>
      </trkpt>
      <trkpt lat="45.10482" lon="5.87931">
        <ele>1765</ele>
        <time>2021-06-15T06:33:41Z</time>
      </trkpt>
      <trkpt lat="45.10491" lon="5.87966">
        <ele>1769</ele>
        <time>2021-06-15T06:34:16Z</time>
      </trkpt>
      <trkpt lat="45.10503" lon="5.88">
        <ele>1772</ele>
        <time>2021-06-15T06:34:52Z</time>
      </trkpt>
      <trkpt lat="45.10501" lon="5.88038">
        <ele>1773</ele>
        <time>2021-06-15T06:35:28Z</time>
      </trkpt>
      <trkpt lat="45.10502" lon="5.88086">
        <ele>1773</ele>
        <time>2021-06-15T06:36:13Z</time>
      </trkpt>
      <trkpt lat="45.10509" lon="5.88163">
        <ele>1775</ele>
        <time>2021-06-15T06:37:26Z</time>
      </trkpt>
      <trkpt lat="45.10521" lon="5.88184">
        <ele>1775</ele>
        <time>2021-06-15T06:37:51Z</time>
      </trkpt>
      <trkpt lat="45.10529" lon="5.88192">
        <ele>1776</ele>
        <time>2021-06-15T06:38:05Z</time>
      </trkpt>
      <trkpt lat="45.10536" lon="5.88206">
        <ele>1777</ele>
        <time>2021-06-15T06:38:21Z</time>
      </trkpt>
      <trkpt lat="45.10536" lon="5.88215">
        <ele>1776</ele>
        <time>2021-06-15T06:38:29Z</time>
      </trkpt>
      <trkpt lat="45.10537" lon="5.88221">
        <ele>1776</ele>
        <time>2021-06-15T06:38:35Z</time>
      </trkpt>
      <trkpt lat="45.1054" lon="5.88254">
        <ele>1774</ele>
        <time>2021-06-15T06:39:06Z</time>
      </trkpt>
      <trkpt lat="45.10546" lon="5.88264">
        <ele>1775</ele>
        <time>2021-06-15T06:39:19Z</time>
      </trkpt>
      <trkpt lat="45.10554" lon="5.88274">
        <ele>1776</ele>
        <time>2021-06-15T06:39:33Z</time>
      </trkpt>
      <trkpt lat="45.10556" lon="5.88285">
        <ele>1775</ele>
        <time>2021-06-15T06:39:44Z</time>
      </trkpt>
      <trkpt lat="45.10572" lon="5.88302">
        <ele>1778</ele>
        <time>2021-06-15T06:40:10Z</time>
      </trkpt>
      <trkpt lat="45.10584" lon="5.88324">
        <ele>1779</ele>
        <time>2021-06-15T06:40:36Z</time>
      </trkpt>
      <trkpt lat="45.10612" lon="5.88346">
        <ele>1782</ele>
        <time>2021-06-15T06:41:19Z</time>
      </trkpt>
      <trkpt lat="45.10627" lon="5.88347">
        <ele>1785</ele>
        <time>2021-06-15T06:41:39Z</time>
      </trkpt>
      <trkpt lat="45.10634" lon="5.88359">
        <ele>1785</ele>
        <time>2021-06-15T06:41:54Z</time>
      </trkpt>
      <trkpt lat="45.1065" lon="5.88378">
        <ele>1787</ele>
        <time>2021-06-15T06:42:22Z</time>
      </trkpt>
      <trkpt lat="45.1066" lon="5.88379">
        <ele>1790</ele>
        <time>2021-06-15T06:42:35Z</time>
      </trkpt>
      <trkpt lat="45.10671" lon="5.88386">
        <ele>1792</ele>
        <time>2021-06-15T06:42:51Z</time>
      </trkpt>
      <trkpt lat="45.10689" lon="5.88394">
        <ele>1796</ele>
        <time>2021-06-15T06:43:16Z</time>
      </trkpt>
      <trkpt lat="45.1069" lon="5.88397">
        <ele>1796</ele>
        <time>2021-06-15T06:43:20Z</time>
      </trkpt>
      <trkpt lat="45.10703" lon="5.88428">
        <ele>1798</ele>
        <time>2021-06-15T06:43:53Z</time>
      </trkpt>
      <trkpt lat="45.10717" lon="5.88462">
        <ele>1798</ele>
        <time>2021-06-15T06:44:31Z</time>
      </trkpt>
      <trkpt lat="45.1073" lon="5.88529">
        <ele>1798</ele>
        <time>2021-06-15T06:45:36Z</time>
      </trkpt>
      <trkpt lat="45.10731" lon="5.88562">
        <ele>1797</ele>
        <time>2021-06-15T06:46:07Z</time>
      </trkpt>
      <trkpt lat="45.10756" lon="5.88646">
        <ele>1802</ele>
        <time>2021-06-15T06:47:33Z</time>
      </trkpt>
      <trkpt lat="45.10773" lon="5.88685">
        <ele>1805</ele>
        <time>2021-06-15T06:48:16Z</time>
      </trkpt>
      <trkpt lat="45.10806" lon="5.8875">
        <ele>1814</ele>
        <time>2021-06-15T06:49:32Z</time>
      </trkpt>
      <trkpt lat="45.10807" lon="5.88761">
        <ele>1813</ele>
        <time>2021-06-15T06:49:42Z</time>
      </trkpt>
      <trkpt lat="45.1081" lon="5.88788">
        <ele>1813</ele>
        <time>2021-06-15T06:50:08Z</time>
      </trkpt>
      <trkpt lat="45.10809" lon="5.88827">
        <ele>1810</ele>
        <time>2021-06-15T06:50:45Z</time>
      </trkpt>
      <trkpt lat="45.10806" lon="5.88863">
        <ele>1804</ele>
        <time>2021-06-15T06:51:19Z</time>
      </trkpt>
      <trkpt lat="45.10815" lon="5.88887">
        <ele>1806</ele>
        <time>2021-06-15T06:51:44Z</time>
      </trkpt>
      <trkpt lat="45.10854" lon="5.88937">
        <ele>1821</ele>
        <time>2021-06-15T06:52:54Z</time>
      </trkpt>
      <trkpt lat="45.10858" lon="5.88975">
        <ele>1819</ele>
        <time>2021-06-15T06:53:31Z</time>
      </trkpt>
      <trkpt lat="45.10872" lon="5.89048">
        <ele>1817</ele>
        <time>2021-06-15T06:54:42Z</time>
      </trkpt>
      <trkpt lat="45.10883" lon="5.89066">
        <ele>1819</ele>
        <time>2021-06-15T06:55:04Z</time>
      </trkpt>
      <trkpt lat="45.10896" lon="5.89082">
        <ele>1821</ele>
        <time>2021-06-15T06:55:27Z</time>
      </trkpt>
      <trkpt lat="45.10915" lon="5.89094">
        <ele>1827</ele>
        <time>2021-06-15T06:55:55Z</time>
      </trkpt>
      <trkpt lat="45.1093" lon="5.89124">
        <ele>1829</ele>
        <time>2021-06-15T06:56:30Z</time>
      </trkpt>
      <trkpt lat="45.10937" lon="5.89146">
        <ele>1829</ele>
        <time>2021-06-15T06:56:52Z</time>
      </trkpt>
      <trkpt lat="45.10936" lon="5.89168">
        <ele>1826</ele>
        <time>2021-06-15T06:57:13Z</time>
      </trkpt>
      <trkpt lat="45.10941" lon="5.8919">
        <ele>1828</ele>
        <time>2021-06-15T06:57:35Z</time>
      </trkpt>
      <trkpt lat="45.10959" lon="5.8921">
        <ele>1837</ele>
        <time>2021-06-15T06:58:05Z</time>
      </trkpt>
      <trkpt lat="45.10966" lon="5.89242">
        <ele>1840</ele>
        <time>2021-06-15T06:58:37Z</time>
      </trkpt>
      <trkpt lat="45.10975" lon="5.89265">
        <ele>1845</ele>
        <time>2021-06-15T06:59:02Z</time>
      </trkpt>
      <trkpt lat="45.10982" lon="5.89275">
        <ele>1849</ele>
        <time>2021-06-15T06:59:15Z</time>
      </trkpt>
      <trkpt lat="45.10991" lon="5.89279">
        <ele>1853</ele>
        <time>2021-06-15T06:59:28Z</time>
      </trkpt>
      <trkpt lat="45.10994" lon="5.8928">
        <ele>1855</ele>
        <time>2021-06-15T06:59:32Z</time>
      </trkpt>
      <trkpt lat="45.11" lon="5.89288">
        <ele>1858</ele>
        <time>2021-06-15T06:59:43Z</time>
      </trkpt>
      <trkpt lat="45.10991" lon="5.89358">
        <ele>1861</ele>
        <time>2021-06-15T07:00:50Z</time>
      </trkpt>
      <trkpt lat="45.11002" lon="5.89396">
        <ele>1872</ele>
        <time>2021-06-15T07:01:28Z</time>
      </trkpt>
      <trkpt lat="45.10997" lon="5.89405">
        <ele>1872</ele>
        <time>2021-06-15T07:01:39Z</time>
      </trkpt>
      <trkpt lat="45.10998" lon="5.89429">
        <ele>1875</ele>
        <time>2021-06-15T07:02:02Z</time>
      </trkpt>
      <trkpt lat="45.11003" lon="5.89458">
        <ele>1879</ele>
        <time>2021-06-15T07:02:30Z</time>
      </trkpt>
      <trkpt lat="45.11007" lon="5.89466">
        <ele>1881</ele>
        <time>2021-06-15T07:02:39Z</time>
      </trkpt>
      <trkpt lat="45.11009" lon="5.89481">
        <ele>1883</ele>
        <time>2021-06-15T07:02:54Z</time>
      </trkpt>
      <trkpt lat="45.11025" lon="5.8952">
        <ele>1891</ele>
        <time>2021-06-15T07:03:36Z</time>
      </trkpt>
      <trkpt lat="45.11044" lon="5.89577">
        <ele>1899</ele>
        <time>2021-06-15T07:04:35Z</time>
      </trkpt>
      <trkpt lat="45.11045" lon="5.89587">
        <ele>1900</ele>
        <time>2021-06-15T07:04:45Z</time>
      </trkpt>
      <trkpt lat="45.11044" lon="5.89604">
        <ele>1898</ele>
        <time>2021-06-15T07:05:01Z</time>
      </trkpt>
      <trkpt lat="45.11047" lon="5.89618">
        <ele>1899</ele>
        <time>2021-06-15T07:05:15Z</time>
      </trkpt>
      <trkpt lat="45.11053" lon="5.89627">
        <ele>1901</ele>
        <time>2021-06-15T07:05:26Z</time>
      </trkpt>
      <trkpt lat="45.11062" lon="5.89652">
        <ele>1903</ele>
        <time>2021-06-15T07:05:53Z</time>
      </trkpt>
      <trkpt lat="45.11061" lon="5.89663">
        <ele>1902</ele>
        <time>2021-06-15T07:06:03Z</time>
      </trkpt>
      <trkpt lat="45.11066" lon="5.89672">
        <ele>1904</ele>
        <time>2021-06-15T07:06:14Z</time>
      </trkpt>
      <trkpt lat="45.11065" lon="5.89682">
        <ele>1903</ele>
        <time>2021-06-15T07:06:24Z</time>
      </trkpt>
      <trkpt lat="45.11072" lon="5.89695">
        <ele>1906</ele>
        <time>2021-06-15T07:06:39Z</time>
      </trkpt>
      <trkpt lat="45.11069" lon="5.89727">
        <ele>1905</ele>
        <time>2021-06-15T07:07:09Z</time>
      </trkpt>
      <trkpt lat="45.1107" lon="5.89734">
        <ele>1905</ele>
        <time>2021-06-15T07:07:16Z</time>
      </trkpt>
      <trkpt lat="45.11075" lon="5.89737">
        <ele>1906</ele>
        <time>2021-06-15T07:07:23Z</time>
      </trkpt>
      <trkpt lat="45.11078" lon="5.89776">
        <ele>1907</ele>
        <time>2021-06-15T07:08:00Z</time>
      </trkpt>
      <trkpt lat="45.1108" lon="5.89781">
        <ele>1907</ele>
        <time>2021-06-15T07:08:06Z</time>
      </trkpt>
      <trkpt lat="45.11079" lon="5.89789">
        <ele>1907</ele>
        <time>2021-06-15T07:08:13Z</time>
      </trkpt>
      <trkpt lat="45.11083" lon="5.89793">
        <ele>1908</ele>
        <time>2021-06-15T07:08:20Z</time>
      </trkpt>
      <trkpt lat="45.11085" lon="5.89799">
        <ele>1909</ele>
        <time>2021-06-15T07:08:26Z</time>
      </trkpt>
      <trkpt lat="45.11084" lon="5.89804">
        <ele>1908</ele>
        <time>2021-06-15T07:08:31Z</time>
      </trkpt>
      <trkpt lat="45.11087" lon="5.89812">
        <ele>1909</ele>
        <time>2021-06-15T07:08:40Z</time>
      </trkpt>
      <trkpt lat="45.11095" lon="5.89819">
        <ele>1913</ele>
        <time>2021-06-15T07:08:52Z</time>
      </trkpt>
      <trkpt lat="45.11098" lon="5.89834">
        <ele>1914</ele>
        <time>2021-06-15T07:09:07Z</time>
      </trkpt>
      <trkpt lat="45.11098" lon="5.89842">
        <ele>1913</ele>
        <time>2021-06-15T07:09:14Z</time>
      </trkpt>
      <trkpt lat="45.11109" lon="5.8985">
        <ele>1918</ele>
        <time>2021-06-15T07:09:31Z</time>
      </trkpt>
      <trkpt lat="45.11111" lon="5.89851">
        <ele>1919</ele>
        <time>2021-06-15T07:09:34Z</time>
      </trkpt>
      <trkpt lat="45.1111" lon="5.89845">
        <ele>1919</ele>
        <time>2021-06-15T07:09:39Z</time>
      </trkpt>
      <trkpt lat="45.11111" lon="5.89851">
        <ele>1919</ele>
        <time>2021-06-15T07:09:45Z</time>
      </trkpt>
      <trkpt lat="45.11114" lon="5.89866">
        <ele>1919</ele>
        <time>2021-06-15T07:10:00Z</time>
      </trkpt>
      <trkpt lat="45.11111" lon="5.89877">
        <ele>1916</ele>
        <time>2021-06-15T07:10:11Z</time>
      </trkpt>
      <trkpt lat="45.11112" lon="5.89892">
        <ele>1915</ele>
        <time>2021-06-15T07:10:25Z</time>
      </trkpt>
      <trkpt lat="45.11115" lon="5.89908">
        <ele>1914</ele>
        <time>2021-06-15T07:10:41Z</time>
      </trkpt>
      <trkpt lat="45.11125" lon="5.89923">
        <ele>1916</ele>
        <time>2021-06-15T07:11:00Z</time>
      </trkpt>
      <trkpt lat="45.11138" lon="5.89935">
        <ele>1919</ele>
        <time>2021-06-15T07:11:21Z</time>
      </trkpt>
      <trkpt lat="45.11162" lon="5.8995">
        <ele>1924</ele>
        <time>2021-06-15T07:11:56Z</time>
      </trkpt>
      <trkpt lat="45.11173" lon="5.89966">
        <ele>1924</ele>
        <time>2021-06-15T07:12:17Z</time>
      </trkpt>
      <trkpt lat="45.11193" lon="5.90001">
        <ele>1921</ele>
        <time>2021-06-15T07:12:59Z</time>
      </trkpt>
      <trkpt lat="45.11237" lon="5.90024">
        <ele>1928</ele>
        <time>2021-06-15T07:14:02Z</time>
      </trkpt>
      <trkpt lat="45.11253" lon="5.90057">
        <ele>1924</ele>
        <time>2021-06-15T07:14:40Z</time>
      </trkpt>
      <trkpt lat="45.11267" lon="5.90095">
        <ele>1918</ele>
        <time>2021-06-15T07:15:20Z</time>
      </trkpt>
      <trkpt lat="45.11279" lon="5.90113">
        <ele>1918</ele>
        <time>2021-06-15T07:15:43Z</time>
      </trkpt>
      <trkpt lat="45.11287" lon="5.90134">
        <ele>1917</ele>
        <time>2021-06-15T07:16:06Z</time>
      </trkpt>
      <trkpt lat="45.11287" lon="5.90166">
        <ele>1916</ele>
        <time>2021-06-15T07:16:36Z</time>
      </trkpt>
      <trkpt lat="45.11296" lon="5.9018">
        <ele>1917</ele>
        <time>2021-06-15T07:16:54Z</time>
      </trkpt>
      <trkpt lat="45.11313" lon="5.90195">
        <ele>1919</ele>
        <time>2021-06-15T07:17:21Z</time>
      </trkpt>
      <trkpt lat="45.11322" lon="5.90208">
        <ele>1920</ele>
        <time>2021-06-15T07:17:38Z</time>
      </trkpt>
      <trkpt lat="45.11351" lon="5.90233">
        <ele>1924</ele>
        <time>2021-06-15T07:18:23Z</time>
      </trkpt>
      <trkpt lat="45.11364" lon="5.90229">
        <ele>1924</ele>
        <time>2021-06-15T07:18:41Z</time>
      </trkpt>
      <trkpt lat="45.11368" lon="5.90232">
        <ele>1925</ele>
        <time>2021-06-15T07:18:47Z</time>
      </trkpt>
      <trkpt lat="45.11385" lon="5.90227">
        <ele>1925</ele>
        <time>2021-06-15T07:19:10Z</time>
      </trkpt>
      <trkpt lat="45.11405" lon="5.90211">
        <ele>1924</ele>
        <time>2021-06-15T07:19:41Z</time>
      </trkpt>
      <trkpt lat="45.11417" lon="5.90211">
        <ele>1924</ele>
        <time>2021-06-15T07:19:57Z</time>
      </trkpt>
      <trkpt lat="45.11437" lon="5.90197">
        <ele>1922</ele>
        <time>2021-06-15T07:20:26Z</time>
      </trkpt>
      <trkpt lat="45.11448" lon="5.90202">
        <ele>1922</ele>
        <time>2021-06-15T07:20:42Z</time>
      </trkpt>
      <trkpt lat="45.11462" lon="5.90215">
        <ele>1923</ele>
        <time>2021-06-15T07:21:04Z</time>
      </trkpt>
      <trkpt lat="45.11483" lon="5.90221">
        <ele>1922</ele>
        <time>2021-06-15T07:21:33Z</time>
      </trkpt>
      <trkpt lat="45.11502" lon="5.90222">
        <ele>1921</ele>
        <time>2021-06-15T07:21:58Z</time>
      </trkpt>
      <trkpt lat="45.11507" lon="5.90221">
        <ele>1922</ele>
        <time>2021-06-15T07:22:05Z</time>
      </trkpt>
      <trkpt lat="45.11517" lon="5.90213">
        <ele>1921</ele>
        <time>2021-06-15T07:22:20Z</time>
      </trkpt>
      <trkpt lat="45.11521" lon="5.90201">
        <ele>1920</ele>
        <time>2021-06-15T07:22:33Z</time>
      </trkpt>
      <trkpt lat="45.1152" lon="5.90194">
        <ele>1920</ele>
        <time>2021-06-15T07:22:39Z</time>
      </trkpt>
      <trkpt lat="45.1153" lon="5.90204">
        <ele>1921</ele>
        <time>2021-06-15T07:22:56Z</time>
      </trkpt>
      <trkpt lat="45.1154" lon="5.90208">
        <ele>1922</ele>
        <time>2021-06-15T07:23:10Z</time>
      </trkpt>
      <trkpt lat="45.11549" lon="5.90209">
        <ele>1922</ele>
        <time>2021-06-15T07:23:22Z</time>
      </trkpt>
      <trkpt lat="45.11561" lon="5.90216">
        <ele>1923</ele>
        <time>2021-06-15T07:23:39Z</time>
      </trkpt>
      <trkpt lat="45.11575" lon="5.90232">
        <ele>1925</ele>
        <time>2021-06-15T07:24:03Z</time>
      </trkpt>
      <trkpt lat="45.1158" lon="5.90253">
        <ele>1927</ele>
        <time>2021-06-15T07:24:24Z</time>
      </trkpt>
      <trkpt lat="45.116" lon="5.90267">
        <ele>1932</ele>
        <time>2021-06-15T07:24:54Z</time>
      </trkpt>
      <trkpt lat="45.11619" lon="5.90293">
        <ele>1938</ele>
        <time>2021-06-15T07:25:29Z</time>
      </trkpt>
      <trkpt lat="45.11623" lon="5.90297">
        <ele>1939</ele>
        <time>2021-06-15T07:25:35Z</time>
      </trkpt>
      <trkpt lat="45.11639" lon="5.90297">
        <ele>1940</ele>
        <time>2021-06-15T07:25:57Z</time>
      </trkpt>
      <trkpt lat="45.11647" lon="5.90311">
        <ele>1942</ele>
        <time>2021-06-15T07:26:14Z</time>
      </trkpt>
      <trkpt lat="45.11665" lon="5.90331">
        <ele>1945</ele>
        <time>2021-06-15T07:26:44Z</time>
      </trkpt>
      <trkpt lat="45.11675" lon="5.90335">
        <ele>1947</ele>
        <time>2021-06-15T07:26:58Z</time>
      </trkpt>
      <trkpt lat="45.11693" lon="5.90351">
        <ele>1954</ele>
        <time>2021-06-15T07:27:26Z</time>
      </trkpt>
      <trkpt lat="45.11697" lon="5.90349">
        <ele>1954</ele>
        <time>2021-06-15T07:27:32Z</time>
      </trkpt>
      <trkpt lat="45.11703" lon="5.9036">
        <ele>1958</ele>
        <time>2021-06-15T07:27:45Z</time>
      </trkpt>
      <trkpt lat="45.11705" lon="5.90373">
        <ele>1961</ele>
        <time>2021-06-15T07:27:58Z</time>
      </trkpt>
      <trkpt lat="45.11704" lon="5.90393">
        <ele>1965</ele>
        <time>2021-06-15T07:28:17Z</time>
      </trkpt>
      <trkpt lat="45.11711" lon="5.90403">
        <ele>1968</ele>
        <time>2021-06-15T07:28:30Z</time>
      </trkpt>
      <trkpt lat="45.11713" lon="5.90411">
        <ele>1970</ele>
        <time>2021-06-15T07:28:38Z</time>
      </trkpt>
      <trkpt lat="45.11716" lon="5.90413">
        <ele>1971</ele>
        <time>2021-06-15T07:28:42Z</time>
      </trkpt>
      <trkpt lat="45.11717" lon="5.90429">
        <ele>1976</ele>
        <time>2021-06-15T07:28:57Z</time>
      </trkpt>
      <trkpt lat="45.11745" lon="5.90453">
        <ele>1988</ele>
        <time>2021-06-15T07:29:41Z</time>
      </trkpt>
      <trkpt lat="45.11741" lon="5.90458">
        <ele>1989</ele>
        <time>2021-06-15T07:29:48Z</time>
      </trkpt>
      <trkpt lat="45.11726" lon="5.90465">
        <ele>1990</ele>
        <time>2021-06-15T07:30:09Z</time>
      </trkpt>
      <trkpt lat="45.11722" lon="5.90471">
        <ele>1992</ele>
        <time>2021-06-15T07:30:17Z</time>
      </trkpt>
      <trkpt lat="45.11716" lon="5.90477">
        <ele>1993</ele>
        <time>2021-06-15T07:30:27Z</time>
      </trkpt>
      <trkpt lat="45.11711" lon="5.90477">
        <ele>1992</ele>
        <time>2021-06-15T07:30:34Z</time>
      </trkpt>
      <trkpt lat="45.11698" lon="5.90481">
        <ele>1993</ele>
        <time>2021-06-15T07:30:51Z</time>
      </trkpt>
      <trkpt lat="45.11693" lon="5.90486">
        <ele>1994</ele>
        <time>2021-06-15T07:30:59Z</time>
      </trkpt>
      <trkpt lat="45.1169" lon="5.90487">
        <ele>1994</ele>
        <time>2021-06-15T07:31:04Z</time>
      </trkpt>
      <trkpt lat="45.11689" lon="5.90492">
        <ele>1996</ele>
        <time>2021-06-15T07:31:08Z</time>
      </trkpt>
      <trkpt lat="45.11693" lon="5.90497">
        <ele>1998</ele>
        <time>2021-06-15T07:31:16Z</time>
      </trkpt>
      <trkpt lat="45.11701" lon="5.90501">
        <ele>2000</ele>
        <time>2021-06-15T07:31:27Z</time>
      </trkpt>
      <trkpt lat="45.11703" lon="5.90504">
        <ele>2002</ele>
        <time>2021-06-15T07:31:31Z</time>
      </trkpt>
      <trkpt lat="45.11711" lon="5.90514">
        <ele>2006</ele>
        <time>2021-06-15T07:31:45Z</time>
      </trkpt>
      <trkpt lat="45.11731" lon="5.90534">
        <ele>2015</ele>
        <time>2021-06-15T07:32:18Z</time>
      </trkpt>
      <trkpt lat="45.11748" lon="5.90555">
        <ele>2023</ele>
        <time>2021-06-15T07:32:48Z</time>
      </trkpt>
      <trkpt lat="45.11771" lon="5.90567">
        <ele>2031</ele>
        <time>2021-06-15T07:33:21Z</time>
      </trkpt>
      <trkpt lat="45.11781" lon="5.9058">
        <ele>2036</ele>
        <time>2021-06-15T07:33:39Z</time>
      </trkpt>
      <trkpt lat="45.1179" lon="5.90589">
        <ele>2037</ele>
        <time>2021-06-15T07:33:53Z</time>
      </trkpt>
      <trkpt lat="45.11801" lon="5.90612">
        <ele>2033</ele>
        <time>2021-06-15T07:34:19Z</time>
      </trkpt>
      <trkpt lat="45.11816" lon="5.90629">
        <ele>2031</ele>
        <time>2021-06-15T07:34:45Z</time>
      </trkpt>
      <trkpt lat="45.11822" lon="5.90641">
        <ele>2028</ele>
        <time>2021-06-15T07:34:59Z</time>
      </trkpt>
      <trkpt lat="45.11854" lon="5.90656">
        <ele>2031</ele>
        <time>2021-06-15T07:35:44Z</time>
      </trkpt>
      <trkpt lat="45.11865" lon="5.90666">
        <ele>2032</ele>
        <time>2021-06-15T07:36:01Z</time>
      </trkpt>
      <trkpt lat="45.11866" lon="5.90682">
        <ele>2028</ele>
        <time>2021-06-15T07:36:17Z</time>
      </trkpt>
      <trkpt lat="45.11869" lon="5.90692">
        <ele>2027</ele>
        <time>2021-06-15T07:36:27Z</time>
      </trkpt>
      <trkpt lat="45.1189" lon="5.9071">
        <ele>2030</ele>
        <time>2021-06-15T07:36:59Z</time>
      </trkpt>
      <trkpt lat="45.11893" lon="5.90717">
        <ele>2030</ele>
        <time>2021-06-15T07:37:07Z</time>
      </trkpt>
      <trkpt lat="45.11905" lon="5.90721">
        <ele>2034</ele>
        <time>2021-06-15T07:37:24Z</time>
      </trkpt>
      <trkpt lat="45.11911" lon="5.90728">
        <ele>2035</ele>
        <time>2021-06-15T07:37:34Z</time>
      </trkpt>
      <trkpt lat="45.11917" lon="5.90732">
        <ele>2036</ele>
        <time>2021-06-15T07:37:43Z</time>
      </trkpt>
      <trkpt lat="45.11922" lon="5.90744">
        <ele>2037</ele>
        <time>2021-06-15T07:37:56Z</time>
      </trkpt>
      <trkpt lat="45.11938" lon="5.90757">
        <ele>2041</ele>
        <time>2021-06-15T07:38:21Z</time>
      </trkpt>
      <trkpt lat="45.1195" lon="5.90764">
        <ele>2045</ele>
        <time>2021-06-15T07:38:38Z</time>
      </trkpt>
      <trkpt lat="45.11974" lon="5.90766">
        <ele>2055</ele>
        <time>2021-06-15T07:39:10Z</time>
      </trkpt>
      <trkpt lat="45.11987" lon="5.90779">
        <ele>2059</ele>
        <time>2021-06-15T07:39:31Z</time>
      </trkpt>
      <trkpt lat="45.11993" lon="5.9079">
        <ele>2061</ele>
        <time>2021-06-15T07:39:44Z</time>
      </trkpt>
      <trkpt lat="45.11999" lon="5.90812">
        <ele>2062</ele>
        <time>2021-06-15T07:40:07Z</time>
      </trkpt>
      <trkpt lat="45.12015" lon="5.9083">
        <ele>2063</ele>
        <time>2021-06-15T07:40:34Z</time>
      </trkpt>
      <trkpt lat="45.12029" lon="5.90855">
        <ele>2062</ele>
        <time>2021-06-15T07:41:04Z</time>
      </trkpt>
      <trkpt lat="45.12059" lon="5.90861">
        <ele>2067</ele>
        <time>2021-06-15T07:41:44Z</time>
      </trkpt>
      <trkpt lat="45.12066" lon="5.90867">
        <ele>2067</ele>
        <time>2021-06-15T07:41:55Z</time>
      </trkpt>
      <trkpt lat="45.12069" lon="5.9087">
        <ele>2067</ele>
        <time>2021-06-15T07:42:00Z</time>
      </trkpt>
      <trkpt lat="45.12077" lon="5.90873">
        <ele>2068</ele>
        <time>2021-06-15T07:42:11Z</time>
      </trkpt>
      <trkpt lat="45.12082" lon="5.90883">
        <ele>2067</ele>
        <time>2021-06-15T07:42:23Z</time>
      </trkpt>
      <trkpt lat="45.12086" lon="5.90896">
        <ele>2065</ele>
        <time>2021-06-15T07:42:36Z</time>
      </trkpt>
      <trkpt lat="45.12093" lon="5.90908">
        <ele>2063</ele>
        <time>2021-06-15T07:42:51Z</time>
      </trkpt>
      <trkpt lat="45.12104" lon="5.90918">
        <ele>2062</ele>
        <time>2021-06-15T07:43:08Z</time>
      </trkpt>
      <trkpt lat="45.1212" lon="5.90942">
        <ele>2062</ele>
        <time>2021-06-15T07:43:39Z</time>
      </trkpt>
      <trkpt lat="45.1213" lon="5.90938">
        <ele>2063</ele>
        <time>2021-06-15T07:43:53Z</time>
      </trkpt>
      <trkpt lat="45.12137" lon="5.90941">
        <ele>2063</ele>
        <time>2021-06-15T07:44:03Z</time>
      </trkpt>
      <trkpt lat="45.12142" lon="5.90955">
        <ele>2063</ele>
        <time>2021-06-15T07:44:18Z</time>
      </trkpt>
      <trkpt lat="45.12153" lon="5.90959">
        <ele>2064</ele>
        <time>2021-06-15T07:44:33Z</time>
      </trkpt>
      <trkpt lat="45.12161" lon="5.90968">
        <ele>2065</ele>
        <time>2021-06-15T07:44:46Z</time>
      </trkpt>
      <trkpt lat="45.12197" lon="5.90976">
        <ele>2067</ele>
        <time>2021-06-15T07:45:35Z</time>
      </trkpt>
      <trkpt lat="45.12204" lon="5.90975">
        <ele>2067</ele>
        <time>2021-06-15T07:45:44Z</time>
      </trkpt>
      <trkpt lat="45.12211" lon="5.9098">
        <ele>2067</ele>
        <time>2021-06-15T07:45:55Z</time>
      </trkpt>
      <trkpt lat="45.12215" lon="5.9099">
        <ele>2067</ele>
        <time>2021-06-15T07:46:06Z</time>
      </trkpt>
      <trkpt lat="45.12222" lon="5.90995">
        <ele>2068</ele>
        <time>2021-06-15T07:46:16Z</time>
      </trkpt>
      <trkpt lat="45.12243" lon="5.91001">
        <ele>2069</ele>
        <time>2021-06-15T07:46:45Z</time>
      </trkpt>
      <trkpt lat="45.12254" lon="5.91">
        <ele>2069</ele>
        <time>2021-06-15T07:46:59Z</time>
      </trkpt>
      <trkpt lat="45.12266" lon="5.91005">
        <ele>2071</ele>
        <time>2021-06-15T07:47:16Z</time>
      </trkpt>
      <trkpt lat="45.12288" lon="5.91031">
        <ele>2078</ele>
        <time>2021-06-15T07:47:54Z</time>
      </trkpt>
      <trkpt lat="45.123" lon="5.91038">
        <ele>2081</ele>
        <time>2021-06-15T07:48:12Z</time>
      </trkpt>
      <trkpt lat="45.12308" lon="5.91047">
        <ele>2084</ele>
        <time>2021-06-15T07:48:25Z</time>
      </trkpt>
      <trkpt lat="45.12345" lon="5.91047">
        <ele>2092</ele>
        <time>2021-06-15T07:49:15Z</time>
      </trkpt>
      <trkpt lat="45.12365" lon="5.91037">
        <ele>2095</ele>
        <time>2021-06-15T07:49:43Z</time>
      </trkpt>
      <trkpt lat="45.1238" lon="5.91026">
        <ele>2096</ele>
        <time>2021-06-15T07:50:06Z</time>
      </trkpt>
      <trkpt lat="45.12393" lon="5.91004">
        <ele>2095</ele>
        <time>2021-06-15T07:50:33Z</time>
      </trkpt>
      <trkpt lat="45.12409" lon="5.90969">
        <ele>2100</ele>
        <time>2021-06-15T07:51:12Z</time>
      </trkpt>
      <trkpt lat="45.12409" lon="5.90942">
        <ele>2101</ele>
        <time>2021-06-15T07:51:37Z</time>
      </trkpt>
      <trkpt lat="45.12417" lon="5.9092">
        <ele>2104</ele>
        <time>2021-06-15T07:52:01Z</time>
      </trkpt>
      <trkpt lat="45.12426" lon="5.90906">
        <ele>2111</ele>
        <time>2021-06-15T07:52:18Z</time>
      </trkpt>
      <trkpt lat="45.1244" lon="5.90896">
        <ele>2119</ele>
        <time>2021-06-15T07:52:39Z</time>
      </trkpt>
      <trkpt lat="45.12449" lon="5.9089">
        <ele>2125</ele>
        <time>2021-06-15T07:52:53Z</time>
      </trkpt>
      <trkpt lat="45.12453" lon="5.90905">
        <ele>2124</ele>
        <time>2021-06-15T07:53:08Z</time>
      </trkpt>
      <trkpt lat="45.12448" lon="5.90917">
        <ele>2119</ele>
        <time>2021-06-15T07:53:21Z</time>
      </trkpt>
      <trkpt lat="45.12453" lon="5.90932">
        <ele>2121</ele>
        <time>2021-06-15T07:53:36Z</time>
      </trkpt>
      <trkpt lat="45.12459" lon="5.90935">
        <ele>2124</ele>
        <time>2021-06-15T07:53:45Z</time>
      </trkpt>
      <trkpt lat="45.12466" lon="5.90948">
        <ele>2127</ele>
        <time>2021-06-15T07:54:00Z</time>
      </trkpt>
      <trkpt lat="45.12468" lon="5.90947">
        <ele>2128</ele>
        <time>2021-06-15T07:54:03Z</time>
      </trkpt>
      <trkpt lat="45.12472" lon="5.90926">
        <ele>2130</ele>
        <time>2021-06-15T07:54:24Z</time>
      </trkpt>
      <trkpt lat="45.12477" lon="5.90918">
        <ele>2133</ele>
        <time>2021-06-15T07:54:34Z</time>
      </trkpt>
      <trkpt lat="45.12482" lon="5.90916">
        <ele>2135</ele>
        <time>2021-06-15T07:54:41Z</time>
      </trkpt>
      <trkpt lat="45.12486" lon="5.90921">
        <ele>2137</ele>
        <time>2021-06-15T07:54:48Z</time>
      </trkpt>
      <trkpt lat="45.12489" lon="5.90939">
        <ele>2139</ele>
        <time>2021-06-15T07:55:05Z</time>
      </trkpt>
      <trkpt lat="45.12499" lon="5.90958">
        <ele>2144</ele>
        <time>2021-06-15T07:55:27Z</time>
      </trkpt>
      <trkpt lat="45.12508" lon="5.90974">
        <ele>2147</ele>
        <time>2021-06-15T07:55:47Z</time>
      </trkpt>
      <trkpt lat="45.12515" lon="5.90991">
        <ele>2149</ele>
        <time>2021-06-15T07:56:05Z</time>
      </trkpt>
      <trkpt lat="45.12516" lon="5.91003">
        <ele>2150</ele>
        <time>2021-06-15T07:56:17Z</time>
      </trkpt>
      <trkpt lat="45.12522" lon="5.91025">
        <ele>2155</ele>
        <time>2021-06-15T07:56:39Z</time>
      </trkpt>
      <trkpt lat="45.1252" lon="5.91043">
        <ele>2157</ele>
        <time>2021-06-15T07:56:56Z</time>
      </trkpt>
      <trkpt lat="45.12515" lon="5.91062">
        <ele>2158</ele>
        <time>2021-06-15T07:57:15Z</time>
      </trkpt>
      <trkpt lat="45.12514" lon="5.91083">
        <ele>2161</ele>
        <time>2021-06-15T07:57:35Z</time>
      </trkpt>
      <trkpt lat="45.12507" lon="5.91116">
        <ele>2162</ele>
        <time>2021-06-15T07:58:07Z</time>
      </trkpt>
      <trkpt lat="45.12507" lon="5.91143">
        <ele>2166</ele>
        <time>2021-06-15T07:58:33Z</time>
      </trkpt>
      <trkpt lat="45.12504" lon="5.91167">
        <ele>2168</ele>
        <time>2021-06-15T07:58:56Z</time>
      </trkpt>
      <trkpt lat="45.12498" lon="5.91184">
        <ele>2162</ele>
        <time>2021-06-15T07:59:14Z</time>
      </trkpt>
      <trkpt lat="45.125" lon="5.9119">
        <ele>2161</ele>
        <time>2021-06-15T07:59:20Z</time>
      </trkpt>
      <trkpt lat="45.12505" lon="5.91201">
        <ele>2161</ele>
        <time>2021-06-15T07:59:32Z</time>
      </trkpt>
      <trkpt lat="45.12517" lon="5.91216">
        <ele>2162</ele>
        <time>2021-06-15T07:59:54Z</time>
      </trkpt>
      <trkpt lat="45.12554" lon="5.91259">
        <ele>2163</ele>
        <time>2021-06-15T08:00:57Z</time>
      </trkpt>
      <trkpt lat="45.12582" lon="5.91307">
        <ele>2153</ele>
        <time>2021-06-15T08:01:56Z</time>
      </trkpt>
      <trkpt lat="45.12592" lon="5.91325">
        <ele>2149</ele>
        <time>2021-06-15T08:02:18Z</time>
      </trkpt>
      <trkpt lat="45.1261" lon="5.91385">
        <ele>2136</ele>
        <time>2021-06-15T08:03:19Z</time>
      </trkpt>
      <trkpt lat="45.12632" lon="5.91404">
        <ele>2139</ele>
        <time>2021-06-15T08:03:53Z</time>
      </trkpt>
      <trkpt lat="45.12638" lon="5.91418">
        <ele>2137</ele>
        <time>2021-06-15T08:04:09Z</time>
      </trkpt>
      <trkpt lat="45.12647" lon="5.91435">
        <ele>2136</ele>
        <time>2021-06-15T08:04:29Z</time>
      </trkpt>
      <trkpt lat="45.12652" lon="5.91455">
        <ele>2133</ele>
        <time>2021-06-15T08:04:49Z</time>
      </trkpt>
      <trkpt lat="45.12667" lon="5.91487">
        <ele>2131</ele>
        <time>2021-06-15T08:05:25Z</time>
      </trkpt>
      <trkpt lat="45.12673" lon="5.91528">
        <ele>2127</ele>
        <time>2021-06-15T08:06:04Z</time>
      </trkpt>
      <trkpt lat="45.12678" lon="5.91543">
        <ele>2127</ele>
        <time>2021-06-15T08:06:20Z</time>
      </trkpt>
      <trkpt lat="45.12681" lon="5.91571">
        <ele>2125</ele>
        <time>2021-06-15T08:06:47Z</time>
      </trkpt>
      <trkpt lat="45.12706" lon="5.91648">
        <ele>2125</ele>
        <time>2021-06-15T08:08:06Z</time>
      </trkpt>
      <trkpt lat="45.12715" lon="5.91671">
        <ele>2126</ele>
        <time>2021-06-15T08:08:31Z</time>
      </trkpt>
      <trkpt lat="45.12719" lon="5.91694">
        <ele>2122</ele>
        <time>2021-06-15T08:08:54Z</time>
      </trkpt>
      <trkpt lat="45.12727" lon="5.91719">
        <ele>2119</ele>
        <time>2021-06-15T08:09:19Z</time>
      </trkpt>
      <trkpt lat="45.12728" lon="5.91731">
        <ele>2116</ele>
        <time>2021-06-15T08:09:31Z</time>
      </trkpt>
      <trkpt lat="45.12737" lon="5.91752">
        <ele>2115</ele>
        <time>2021-06-15T08:09:54Z</time>
      </trkpt>
      <trkpt lat="45.12747" lon="5.91759">
        <ele>2118</ele>
        <time>2021-06-15T08:10:09Z</time>
      </trkpt>
      <trkpt lat="45.12766" lon="5.91796">
        <ele>2110</ele>
        <time>2021-06-15T08:10:52Z</time>
      </trkpt>
      <trkpt lat="45.1277" lon="5.9181">
        <ele>2107</ele>
        <time>2021-06-15T08:11:06Z</time>
      </trkpt>
      <trkpt lat="45.12777" lon="5.91815">
        <ele>2106</ele>
        <time>2021-06-15T08:11:17Z</time>
      </trkpt>
      <trkpt lat="45.12789" lon="5.91837">
        <ele>2104</ele>
        <time>2021-06-15T08:11:43Z</time>
      </trkpt>
      <trkpt lat="45.12786" lon="5.91843">
        <ele>2103</ele>
        <time>2021-06-15T08:11:50Z</time>
      </trkpt>
      <trkpt lat="45.12789" lon="5.91849">
        <ele>2102</ele>
        <time>2021-06-15T08:11:57Z</time>
      </trkpt>
      <trkpt lat="45.12796" lon="5.91857">
        <ele>2102</ele>
        <time>2021-06-15T08:12:09Z</time>
      </trkpt>
      <trkpt lat="45.12806" lon="5.91878">
        <ele>2101</ele>
        <time>2021-06-15T08:12:32Z</time>
      </trkpt>
      <trkpt lat="45.12821" lon="5.91895">
        <ele>2101</ele>
        <time>2021-06-15T08:12:58Z</time>
      </trkpt>
      <trkpt lat="45.12831" lon="5.91924">
        <ele>2102</ele>
        <time>2021-06-15T08:13:28Z</time>
      </trkpt>
      <trkpt lat="45.12848" lon="5.91953">
        <ele>2099</ele>
        <time>2021-06-15T08:14:04Z</time>
      </trkpt>
      <trkpt lat="45.12858" lon="5.91971">
        <ele>2099</ele>
        <time>2021-06-15T08:14:26Z</time>
      </trkpt>
      <trkpt lat="45.12856" lon="5.91988">
        <ele>2101</ele>
        <time>2021-06-15T08:14:42Z</time>
      </trkpt>
      <trkpt lat="45.12855" lon="5.91995">
        <ele>2103</ele>
        <time>2021-06-15T08:14:48Z</time>
      </trkpt>
      <trkpt lat="45.12856" lon="5.91988">
        <ele>2101</ele>
        <time>2021-06-15T08:14:55Z</time>
      </trkpt>
      <trkpt lat="45.12858" lon="5.91971">
        <ele>2099</ele>
        <time>2021-06-15T08:15:11Z</time>
      </trkpt>
      <trkpt lat="45.12877" lon="5.91962">
        <ele>2093</ele>
        <time>2021-06-15T08:15:38Z</time>
      </trkpt>
      <trkpt lat="45.12883" lon="5.91959">
        <ele>2090</ele>
        <time>2021-06-15T08:15:47Z</time>
      </trkpt>
      <trkpt lat="45.1288" lon="5.91938">
        <ele>2086</ele>
        <time>2021-06-15T08:16:07Z</time>
      </trkpt>
      <trkpt lat="45.12888" lon="5.91927">
        <ele>2080</ele>
        <time>2021-06-15T08:16:22Z</time>
      </trkpt>
      <trkpt lat="45.1289" lon="5.91935">
        <ele>2081</ele>
        <time>2021-06-15T08:16:30Z</time>
      </trkpt>
      <trkpt lat="45.12899" lon="5.91945">
        <ele>2081</ele>
        <time>2021-06-15T08:16:45Z</time>
      </trkpt>
      <trkpt lat="45.12901" lon="5.91937">
        <ele>2078</ele>
        <time>2021-06-15T08:16:53Z</time>
      </trkpt>
      <trkpt lat="45.12907" lon="5.91928">
        <ele>2073</ele>
        <time>2021-06-15T08:17:05Z</time>
      </trkpt>
      <trkpt lat="45.12911" lon="5.91904">
        <ele>2064</ele>
        <time>2021-06-15T08:17:28Z</time>
      </trkpt>
      <trkpt lat="45.12918" lon="5.9189">
        <ele>2058</ele>
        <time>2021-06-15T08:17:44Z</time>
      </trkpt>
      <trkpt lat="45.1292" lon="5.91869">
        <ele>2053</ele>
        <time>2021-06-15T08:18:04Z</time>
      </trkpt>
      <trkpt lat="45.12926" lon="5.91849">
        <ele>2046</ele>
        <time>2021-06-15T08:18:24Z</time>
      </trkpt>
      <trkpt lat="45.12928" lon="5.9181">
        <ele>2042</ele>
        <time>2021-06-15T08:19:01Z</time>
      </trkpt>
      <trkpt lat="45.12958" lon="5.91756">
        <ele>2029</ele>
        <time>2021-06-15T08:20:06Z</time>
      </trkpt>
      <trkpt lat="45.13029" lon="5.91662">
        <ele>2008</ele>
        <time>2021-06-15T08:22:16Z</time>
      </trkpt>
      <trkpt lat="45.13034" lon="5.91663">
        <ele>2007</ele>
        <time>2021-06-15T08:22:22Z</time>
      </trkpt>
      <trkpt lat="45.13054" lon="5.91665">
        <ele>2004</ele>
        <time>2021-06-15T08:22:49Z</time>
      </trkpt>
      <trkpt lat="45.1306" lon="5.9167">
        <ele>2002</ele>
        <time>2021-06-15T08:22:58Z</time>
      </trkpt>
      <trkpt lat="45.13064" lon="5.91684">
        <ele>2002</ele>
        <time>2021-06-15T08:23:13Z</time>
      </trkpt>
      <trkpt lat="45.1307" lon="5.9169">
        <ele>2000</ele>
        <time>2021-06-15T08:23:22Z</time>
      </trkpt>
      <trkpt lat="45.13076" lon="5.91701">
        <ele>1999</ele>
        <time>2021-06-15T08:23:35Z</time>
      </trkpt>
      <trkpt lat="45.13083" lon="5.91706">
        <ele>1998</ele>
        <time>2021-06-15T08:23:46Z</time>
      </trkpt>
      <trkpt lat="45.13084" lon="5.91701">
        <ele>1998</ele>
        <time>2021-06-15T08:23:51Z</time>
      </trkpt>
      <trkpt lat="45.1308" lon="5.91683">
        <ele>1999</ele>
        <time>2021-06-15T08:24:09Z</time>
      </trkpt>
      <trkpt lat="45.13071" lon="5.9167">
        <ele>2000</ele>
        <time>2021-06-15T08:24:26Z</time>
      </trkpt>
      <trkpt lat="45.1306" lon="5.91593">
        <ele>2002</ele>
        <time>2021-06-15T08:25:40Z</time>
      </trkpt>
      <trkpt lat="45.13059" lon="5.91591">
        <ele>2002</ele>
        <time>2021-06-15T08:25:42Z</time>
      </trkpt>
      <trkpt lat="45.13055" lon="5.91578">
        <ele>2003</ele>
        <time>2021-06-15T08:25:55Z</time>
      </trkpt>
      <trkpt lat="45.13056" lon="5.91567">
        <ele>2002</ele>
        <time>2021-06-15T08:26:06Z</time>
      </trkpt>
      <trkpt lat="45.13054" lon="5.9156">
        <ele>2003</ele>
        <time>2021-06-15T08:26:13Z</time>
      </trkpt>
      <trkpt lat="45.13052" lon="5.91558">
        <ele>2003</ele>
        <time>2021-06-15T08:26:16Z</time>
      </trkpt>
      <trkpt lat="45.13049" lon="5.9155">
        <ele>2004</ele>
        <time>2021-06-15T08:26:25Z</time>
      </trkpt>
      <trkpt lat="45.13046" lon="5.91546">
        <ele>2005</ele>
        <time>2021-06-15T08:26:30Z</time>
      </trkpt>
      <trkpt lat="45.13046" lon="5.91541">
        <ele>2005</ele>
        <time>2021-06-15T08:26:35Z</time>
      </trkpt>
      <trkpt lat="45.13039" lon="5.91522">
        <ele>2007</ele>
        <time>2021-06-15T08:26:55Z</time>
      </trkpt>
      <trkpt lat="45.13039" lon="5.91481">
        <ele>2006</ele>
        <time>2021-06-15T08:27:34Z</time>
      </trkpt>
      <trkpt lat="45.13035" lon="5.91471">
        <ele>2007</ele>
        <time>2021-06-15T08:27:44Z</time>
      </trkpt>
      <trkpt lat="45.13034" lon="5.91463">
        <ele>2008</ele>
        <time>2021-06-15T08:27:52Z</time>
      </trkpt>
      <trkpt lat="45.13034" lon="5.91443">
        <ele>2007</ele>
        <time>2021-06-15T08:28:11Z</time>
      </trkpt>
      <trkpt lat="45.13037" lon="5.91431">
        <ele>2005</ele>
        <time>2021-06-15T08:28:23Z</time>
      </trkpt>
      <trkpt lat="45.13034" lon="5.91414">
        <ele>2006</ele>
        <time>2021-06-15T08:28:39Z</time>
      </trkpt>
      <trkpt lat="45.13035" lon="5.91407">
        <ele>2006</ele>
        <time>2021-06-15T08:28:46Z</time>
      </trkpt>
      <trkpt lat="45.13038" lon="5.91382">
        <ele>2005</ele>
        <time>2021-06-15T08:29:10Z</time>
      </trkpt>
      <trkpt lat="45.13036" lon="5.91335">
        <ele>2006</ele>
        <time>2021-06-15T08:29:54Z</time>
      </trkpt>
      <trkpt lat="45.13042" lon="5.91313">
        <ele>2006</ele>
        <time>2021-06-15T08:30:17Z</time>
      </trkpt>
      <trkpt lat="45.13046" lon="5.91288">
        <ele>2007</ele>
        <time>2021-06-15T08:30:41Z</time>
      </trkpt>
      <trkpt lat="45.1306" lon="5.91241">
        <ele>2007</ele>
        <time>2021-06-15T08:31:29Z</time>
      </trkpt>
      <trkpt lat="45.13077" lon="5.91224">
        <ele>2005</ele>
        <time>2021-06-15T08:31:56Z</time>
      </trkpt>
      <trkpt lat="45.13093" lon="5.91203">
        <ele>2008</ele>
        <time>2021-06-15T08:32:26Z</time>
      </trkpt>
      <trkpt lat="45.13107" lon="5.91197">
        <ele>2008</ele>
        <time>2021-06-15T08:32:45Z</time>
      </trkpt>
      <trkpt lat="45.13116" lon="5.912">
        <ele>2007</ele>
        <time>2021-06-15T08:32:57Z</time>
      </trkpt>
      <trkpt lat="45.13124" lon="5.91202">
        <ele>2005</ele>
        <time>2021-06-15T08:33:08Z</time>
      </trkpt>
      <trkpt lat="45.13135" lon="5.91198">
        <ele>2005</ele>
        <time>2021-06-15T08:33:23Z</time>
      </trkpt>
      <trkpt lat="45.13146" lon="5.91182">
        <ele>2007</ele>
        <time>2021-06-15T08:33:44Z</time>
      </trkpt>
      <trkpt lat="45.13148" lon="5.91176">
        <ele>2008</ele>
        <time>2021-06-15T08:33:51Z</time>
      </trkpt>
      <trkpt lat="45.13147" lon="5.9117">
        <ele>2009</ele>
        <time>2021-06-15T08:33:57Z</time>
      </trkpt>
      <trkpt lat="45.13149" lon="5.91166">
        <ele>2009</ele>
        <time>2021-06-15T08:34:01Z</time>
      </trkpt>
      <trkpt lat="45.13154" lon="5.91166">
        <ele>2009</ele>
        <time>2021-06-15T08:34:08Z</time>
      </trkpt>
      <trkpt lat="45.13157" lon="5.91162">
        <ele>2009</ele>
        <time>2021-06-15T08:34:13Z</time>
      </trkpt>
      <trkpt lat="45.13158" lon="5.91157">
        <ele>2010</ele>
        <time>2021-06-15T08:34:18Z</time>
      </trkpt>
      <trkpt lat="45.1316" lon="5.91151">
        <ele>2011</ele>
        <time>2021-06-15T08:34:24Z</time>
      </trkpt>
      <trkpt lat="45.13163" lon="5.91149">
        <ele>2011</ele>
        <time>2021-06-15T08:34:29Z</time>
      </trkpt>
      <trkpt lat="45.13171" lon="5.91134">
        <ele>2013</ele>
        <time>2021-06-15T08:34:47Z</time>
      </trkpt>
      <trkpt lat="45.13171" lon="5.91129">
        <ele>2014</ele>
        <time>2021-06-15T08:34:51Z</time>
      </trkpt>
      <trkpt lat="45.13175" lon="5.91123">
        <ele>2015</ele>
        <time>2021-06-15T08:34:59Z</time>
      </trkpt>
      <trkpt lat="45.13176" lon="5.91113">
        <ele>2017</ele>
        <time>2021-06-15T08:35:09Z</time>
      </trkpt>
      <trkpt lat="45.13181" lon="5.91106">
        <ele>2018</ele>
        <time>2021-06-15T08:35:18Z</time>
      </trkpt>
      <trkpt lat="45.13182" lon="5.91103">
        <ele>2018</ele>
        <time>2021-06-15T08:35:21Z</time>
      </trkpt>
      <trkpt lat="45.13186" lon="5.91083">
        <ele>2021</ele>
        <time>2021-06-15T08:35:41Z</time>
      </trkpt>
      <trkpt lat="45.13187" lon="5.91072">
        <ele>2022</ele>
        <time>2021-06-15T08:35:51Z</time>
      </trkpt>
      <trkpt lat="45.13187" lon="5.91059">
        <ele>2023</ele>
        <time>2021-06-15T08:36:03Z</time>
      </trkpt>
      <trkpt lat="45.13189" lon="5.91047">
        <ele>2023</ele>
        <time>2021-06-15T08:36:15Z</time>
      </trkpt>
      <trkpt lat="45.13188" lon="5.9104">
        <ele>2024</ele>
        <time>2021-06-15T08:36:22Z</time>
      </trkpt>
      <trkpt lat="45.13186" lon="5.91039">
        <ele>2024</ele>
        <time>2021-06-15T08:36:24Z</time>
      </trkpt>
      <trkpt lat="45.13185" lon="5.91034">
        <ele>2024</ele>
        <time>2021-06-15T08:36:29Z</time>
      </trkpt>
      <trkpt lat="45.13182" lon="5.91013">
        <ele>2026</ele>
        <time>2021-06-15T08:36:50Z</time>
      </trkpt>
      <trkpt lat="45.13176" lon="5.91001">
        <ele>2027</ele>
        <time>2021-06-15T08:37:03Z</time>
      </trkpt>
      <trkpt lat="45.13174" lon="5.90995">
        <ele>2027</ele>
        <time>2021-06-15T08:37:10Z</time>
      </trkpt>
      <trkpt lat="45.13178" lon="5.90984">
        <ele>2027</ele>
        <time>2021-06-15T08:37:21Z</time>
      </trkpt>
      <trkpt lat="45.13178" lon="5.90977">
        <ele>2027</ele>
        <time>2021-06-15T08:37:28Z</time>
      </trkpt>
      <trkpt lat="45.13182" lon="5.90959">
        <ele>2026</ele>
        <time>2021-06-15T08:37:46Z</time>
      </trkpt>
      <trkpt lat="45.13181" lon="5.90947">
        <ele>2026</ele>
        <time>2021-06-15T08:37:57Z</time>
      </trkpt>
      <trkpt lat="45.13184" lon="5.90936">
        <ele>2025</ele>
        <time>2021-06-15T08:38:08Z</time>
      </trkpt>
      <trkpt lat="45.13185" lon="5.90913">
        <ele>2024</ele>
        <time>2021-06-15T08:38:30Z</time>
      </trkpt>
      <trkpt lat="45.13182" lon="5.90897">
        <ele>2024</ele>
        <time>2021-06-15T08:38:45Z</time>
      </trkpt>
      <trkpt lat="45.13184" lon="5.90887">
        <ele>2024</ele>
        <time>2021-06-15T08:38:55Z</time>
      </trkpt>
      <trkpt lat="45.13181" lon="5.90859">
        <ele>2024</ele>
        <time>2021-06-15T08:39:22Z</time>
      </trkpt>
      <trkpt lat="45.13172" lon="5.90848">
        <ele>2026</ele>
        <time>2021-06-15T08:39:38Z</time>
      </trkpt>
      <trkpt lat="45.13169" lon="5.90829">
        <ele>2027</ele>
        <time>2021-06-15T08:39:56Z</time>
      </trkpt>
      <trkpt lat="45.13172" lon="5.90822">
        <ele>2025</ele>
        <time>2021-06-15T08:40:04Z</time>
      </trkpt>
      <trkpt lat="45.13173" lon="5.90808">
        <ele>2024</ele>
        <time>2021-06-15T08:40:17Z</time>
      </trkpt>
      <trkpt lat="45.13175" lon="5.90803">
        <ele>2023</ele>
        <time>2021-06-15T08:40:22Z</time>
      </trkpt>
      <trkpt lat="45.13167" lon="5.90785">
        <ele>2024</ele>
        <time>2021-06-15T08:40:42Z</time>
      </trkpt>
      <trkpt lat="45.13167" lon="5.90776">
        <ele>2024</ele>
        <time>2021-06-15T08:40:51Z</time>
      </trkpt>
      <trkpt lat="45.13155" lon="5.90734">
        <ele>2032</ele>
        <time>2021-06-15T08:41:34Z</time>
      </trkpt>
      <trkpt lat="45.13153" lon="5.90718">
        <ele>2033</ele>
        <time>2021-06-15T08:41:49Z</time>
      </trkpt>
      <trkpt lat="45.13154" lon="5.90704">
        <ele>2032</ele>
        <time>2021-06-15T08:42:02Z</time>
      </trkpt>
      <trkpt lat="45.13151" lon="5.9066">
        <ele>2034</ele>
        <time>2021-06-15T08:42:44Z</time>
      </trkpt>
      <trkpt lat="45.13155" lon="5.90649">
        <ele>2030</ele>
        <time>2021-06-15T08:42:55Z</time>
      </trkpt>
      <trkpt lat="45.1316" lon="5.90642">
        <ele>2026</ele>
        <time>2021-06-15T08:43:05Z</time>
      </trkpt>
      <trkpt lat="45.1316" lon="5.90636">
        <ele>2025</ele>
        <time>2021-06-15T08:43:10Z</time>
      </trkpt>
      <trkpt lat="45.13158" lon="5.90632">
        <ele>2027</ele>
        <time>2021-06-15T08:43:15Z</time>
      </trkpt>
      <trkpt lat="45.13158" lon="5.9062">
        <ele>2027</ele>
        <time>2021-06-15T08:43:26Z</time>
      </trkpt>
      <trkpt lat="45.13148" lon="5.90594">
        <ele>2035</ele>
        <time>2021-06-15T08:43:54Z</time>
      </trkpt>
      <trkpt lat="45.1314" lon="5.90591">
        <ele>2041</ele>
        <time>2021-06-15T08:44:05Z</time>
      </trkpt>
      <trkpt lat="45.13136" lon="5.90572">
        <ele>2042</ele>
        <time>2021-06-15T08:44:24Z</time>
      </trkpt>
      <trkpt lat="45.13139" lon="5.90561">
        <ele>2037</ele>
        <time>2021-06-15T08:44:35Z</time>
      </trkpt>
      <trkpt lat="45.13121" lon="5.90513">
        <ele>2040</ele>
        <time>2021-06-15T08:45:26Z</time>
      </trkpt>
      <trkpt lat="45.13113" lon="5.90477">
        <ele>2037</ele>
        <time>2021-06-15T08:46:02Z</time>
      </trkpt>
      <trkpt lat="45.13112" lon="5.9047">
        <ele>2036</ele>
        <time>2021-06-15T08:46:08Z</time>
      </trkpt>
      <trkpt lat="45.13114" lon="5.90467">
        <ele>2034</ele>
        <time>2021-06-15T08:46:12Z</time>
      </trkpt>
      <trkpt lat="45.13113" lon="5.90462">
        <ele>2034</ele>
        <time>2021-06-15T08:46:17Z</time>
      </trkpt>
      <trkpt lat="45.13116" lon="5.90448">
        <ele>2029</ele>
        <time>2021-06-15T08:46:31Z</time>
      </trkpt>
      <trkpt lat="45.13116" lon="5.90438">
        <ele>2027</ele>
        <time>2021-06-15T08:46:40Z</time>
      </trkpt>
      <trkpt lat="45.13107" lon="5.90422">
        <ele>2029</ele>
        <time>2021-06-15T08:47:00Z</time>
      </trkpt>
      <trkpt lat="45.13107" lon="5.90416">
        <ele>2027</ele>
        <time>2021-06-15T08:47:05Z</time>
      </trkpt>
      <trkpt lat="45.13105" lon="5.90411">
        <ele>2027</ele>
        <time>2021-06-15T08:47:11Z</time>
      </trkpt>
      <trkpt lat="45.13103" lon="5.90393">
        <ele>2021</ele>
        <time>2021-06-15T08:47:28Z</time>
      </trkpt>
      <trkpt lat="45.13092" lon="5.90358">
        <ele>2012</ele>
        <time>2021-06-15T08:48:04Z</time>
      </trkpt>
      <trkpt lat="45.13082" lon="5.90317">
        <ele>1997</ele>
        <time>2021-06-15T08:48:45Z</time>
      </trkpt>
      <trkpt lat="45.13067" lon="5.90295">
        <ele>1991</ele>
        <time>2021-06-15T08:49:14Z</time>
      </trkpt>
      <trkpt lat="45.13057" lon="5.90277">
        <ele>1984</ele>
        <time>2021-06-15T08:49:35Z</time>
      </trkpt>
      <trkpt lat="45.13048" lon="5.90275">
        <ele>1986</ele>
        <time>2021-06-15T08:49:47Z</time>
      </trkpt>
      <trkpt lat="45.13036" lon="5.90257">
        <ele>1980</ele>
        <time>2021-06-15T08:50:11Z</time>
      </trkpt>
      <trkpt lat="45.13021" lon="5.90227">
        <ele>1974</ele>
        <time>2021-06-15T08:50:45Z</time>
      </trkpt>
      <trkpt lat="45.13004" lon="5.90207">
        <ele>1975</ele>
        <time>2021-06-15T08:51:15Z</time>
      </trkpt>
      <trkpt lat="45.13" lon="5.90191">
        <ele>1973</ele>
        <time>2021-06-15T08:51:31Z</time>
      </trkpt>
      <trkpt lat="45.12996" lon="5.90183">
        <ele>1975</ele>
        <time>2021-06-15T08:51:40Z</time>
      </trkpt>
      <trkpt lat="45.12996" lon="5.90177">
        <ele>1974</ele>
        <time>2021-06-15T08:51:46Z</time>
      </trkpt>
      <trkpt lat="45.12998" lon="5.90171">
        <ele>1970</ele>
        <time>2021-06-15T08:51:52Z</time>
      </trkpt>
      <trkpt lat="45.12996" lon="5.90162">
        <ele>1971</ele>
        <time>2021-06-15T08:52:01Z</time>
      </trkpt>
      <trkpt lat="45.13" lon="5.90148">
        <ele>1965</ele>
        <time>2021-06-15T08:52:15Z</time>
      </trkpt>
      <trkpt lat="45.12998" lon="5.9012">
        <ele>1965</ele>
        <time>2021-06-15T08:52:41Z</time>
      </trkpt>
      <trkpt lat="45.13009" lon="5.90057">
        <ele>1953</ele>
        <time>2021-06-15T08:53:43Z</time>
      </trkpt>
      <trkpt lat="45.13006" lon="5.90009">
        <ele>1952</ele>
        <time>2021-06-15T08:54:28Z</time>
      </trkpt>
      <trkpt lat="45.13003" lon="5.89975">
        <ele>1951</ele>
        <time>2021-06-15T08:55:00Z</time>
      </trkpt>
      <trkpt lat="45.12993" lon="5.89928">
        <ele>1951</ele>
        <time>2021-06-15T08:55:46Z</time>
      </trkpt>
      <trkpt lat="45.12981" lon="5.89899">
        <ele>1952</ele>
        <time>2021-06-15T08:56:18Z</time>
      </trkpt>
      <trkpt lat="45.12976" lon="5.89888">
        <ele>1952</ele>
        <time>2021-06-15T08:56:30Z</time>
      </trkpt>
      <trkpt lat="45.12962" lon="5.89876">
        <ele>1955</ele>
        <time>2021-06-15T08:56:52Z</time>
      </trkpt>
      <trkpt lat="45.12958" lon="5.8987">
        <ele>1955</ele>
        <time>2021-06-15T08:57:00Z</time>
      </trkpt>
      <trkpt lat="45.12945" lon="5.89838">
        <ele>1952</ele>
        <time>2021-06-15T08:57:35Z</time>
      </trkpt>
      <trkpt lat="45.12929" lon="5.89787">
        <ele>1951</ele>
        <time>2021-06-15T08:58:27Z</time>
      </trkpt>
      <trkpt lat="45.12905" lon="5.89752">
        <ele>1956</ele>
        <time>2021-06-15T08:59:13Z</time>
      </trkpt>
      <trkpt lat="45.12875" lon="5.89691">
        <ele>1953</ele>
        <time>2021-06-15T09:00:23Z</time>
      </trkpt>
      <trkpt lat="45.12866" lon="5.89663">
        <ele>1948</ele>
        <time>2021-06-15T09:00:52Z</time>
      </trkpt>
      <trkpt lat="45.12867" lon="5.89648">
        <ele>1945</ele>
        <time>2021-06-15T09:01:06Z</time>
      </trkpt>
      <trkpt lat="45.12863" lon="5.8964">
        <ele>1944</ele>
        <time>2021-06-15T09:01:16Z</time>
      </trkpt>
      <trkpt lat="45.12855" lon="5.89634">
        <ele>1944</ele>
        <time>2021-06-15T09:01:28Z</time>
      </trkpt>
      <trkpt lat="45.12838" lon="5.89605">
        <ele>1939</ele>
        <time>2021-06-15T09:02:03Z</time>
      </trkpt>
      <trkpt lat="45.12831" lon="5.89588">
        <ele>1937</ele>
        <time>2021-06-15T09:02:22Z</time>
      </trkpt>
      <trkpt lat="45.12828" lon="5.89574">
        <ele>1936</ele>
        <time>2021-06-15T09:02:36Z</time>
      </trkpt>
      <trkpt lat="45.12819" lon="5.8955">
        <ele>1935</ele>
        <time>2021-06-15T09:03:01Z</time>
      </trkpt>
      <trkpt lat="45.12813" lon="5.89543">
        <ele>1935</ele>
        <time>2021-06-15T09:03:11Z</time>
      </trkpt>
      <trkpt lat="45.12808" lon="5.89517">
        <ele>1932</ele>
        <time>2021-06-15T09:03:37Z</time>
      </trkpt>
      <trkpt lat="45.12804" lon="5.8951">
        <ele>1932</ele>
        <time>2021-06-15T09:03:45Z</time>
      </trkpt>
      <trkpt lat="45.12801" lon="5.89494">
        <ele>1930</ele>
        <time>2021-06-15T09:04:01Z</time>
      </trkpt>
      <trkpt lat="45.12796" lon="5.89482">
        <ele>1929</ele>
        <time>2021-06-15T09:04:14Z</time>
      </trkpt>
      <trkpt lat="45.12793" lon="5.89473">
        <ele>1929</ele>
        <time>2021-06-15T09:04:23Z</time>
      </trkpt>
      <trkpt lat="45.12784" lon="5.89458">
        <ele>1929</ele>
        <time>2021-06-15T09:04:42Z</time>
      </trkpt>
      <trkpt lat="45.12781" lon="5.89451">
        <ele>1928</ele>
        <time>2021-06-15T09:04:50Z</time>
      </trkpt>
      <trkpt lat="45.12781" lon="5.89446">
        <ele>1928</ele>
        <time>2021-06-15T09:04:54Z</time>
      </trkpt>
      <trkpt lat="45.12778" lon="5.89442">
        <ele>1928</ele>
        <time>2021-06-15T09:05:00Z</time>
      </trkpt>
      <trkpt lat="45.12775" lon="5.8943">
        <ele>1927</ele>
        <time>2021-06-15T09:05:12Z</time>
      </trkpt>
      <trkpt lat="45.12776" lon="5.89423">
        <ele>1925</ele>
        <time>2021-06-15T09:05:19Z</time>
      </trkpt>
      <trkpt lat="45.12776" lon="5.89413">
        <ele>1924</ele>
        <time>2021-06-15T09:05:28Z</time>
      </trkpt>
      <trkpt lat="45.12774" lon="5.894">
        <ele>1922</ele>
        <time>2021-06-15T09:05:41Z</time>
      </trkpt>
      <trkpt lat="45.12772" lon="5.89396">
        <ele>1922</ele>
        <time>2021-06-15T09:05:45Z</time>
      </trkpt>
      <trkpt lat="45.12768" lon="5.89389">
        <ele>1922</ele>
        <time>2021-06-15T09:05:54Z</time>
      </trkpt>
      <trkpt lat="45.12762" lon="5.89368">
        <ele>1920</ele>
        <time>2021-06-15T09:06:15Z</time>
      </trkpt>
      <trkpt lat="45.12759" lon="5.89364">
        <ele>1921</ele>
        <time>2021-06-15T09:06:20Z</time>
      </trkpt>
      <trkpt lat="45.12756" lon="5.89363">
        <ele>1921</ele>
        <time>2021-06-15T09:06:25Z</time>
      </trkpt>
      <trkpt lat="45.12752" lon="5.89356">
        <ele>1921</ele>
        <time>2021-06-15T09:06:33Z</time>
      </trkpt>
      <trkpt lat="45.12746" lon="5.89342">
        <ele>1920</ele>
        <time>2021-06-15T09:06:48Z</time>
      </trkpt>
      <trkpt lat="45.12735" lon="5.89335">
        <ele>1920</ele>
        <time>2021-06-15T09:07:05Z</time>
      </trkpt>
      <trkpt lat="45.12727" lon="5.89319">
        <ele>1918</ele>
        <time>2021-06-15T09:07:23Z</time>
      </trkpt>
      <trkpt lat="45.12724" lon="5.89317">
        <ele>1917</ele>
        <time>2021-06-15T09:07:27Z</time>
      </trkpt>
      <trkpt lat="45.12723" lon="5.89306">
        <ele>1915</ele>
        <time>2021-06-15T09:07:38Z</time>
      </trkpt>
      <trkpt lat="45.12729" lon="5.893">
        <ele>1913</ele>
        <time>2021-06-15T09:07:48Z</time>
      </trkpt>
      <trkpt lat="45.12729" lon="5.89294">
        <ele>1911</ele>
        <time>2021-06-15T09:07:53Z</time>
      </trkpt>
      <trkpt lat="45.12735" lon="5.89277">
        <ele>1906</ele>
        <time>2021-06-15T09:08:11Z</time>
      </trkpt>
      <trkpt lat="45.12733" lon="5.89271">
        <ele>1905</ele>
        <time>2021-06-15T09:08:17Z</time>
      </trkpt>
      <trkpt lat="45.12733" lon="5.89264">
        <ele>1903</ele>
        <time>2021-06-15T09:08:24Z</time>
      </trkpt>
      <trkpt lat="45.12731" lon="5.89258">
        <ele>1902</ele>
        <time>2021-06-15T09:08:30Z</time>
      </trkpt>
      <trkpt lat="45.12736" lon="5.89238">
        <ele>1896</ele>
        <time>2021-06-15T09:08:50Z</time>
      </trkpt>
      <trkpt lat="45.12731" lon="5.89231">
        <ele>1895</ele>
        <time>2021-06-15T09:09:00Z</time>
      </trkpt>
      <trkpt lat="45.12728" lon="5.89215">
        <ele>1891</ele>
        <time>2021-06-15T09:09:15Z</time>
      </trkpt>
      <trkpt lat="45.12731" lon="5.89207">
        <ele>1889</ele>
        <time>2021-06-15T09:09:24Z</time>
      </trkpt>
      <trkpt lat="45.12732" lon="5.8919">
        <ele>1884</ele>
        <time>2021-06-15T09:09:40Z</time>
      </trkpt>
      <trkpt lat="45.12727" lon="5.89173">
        <ele>1881</ele>
        <time>2021-06-15T09:09:57Z</time>
      </trkpt>
      <trkpt lat="45.12726" lon="5.89158">
        <ele>1877</ele>
        <time>2021-06-15T09:10:11Z</time>
      </trkpt>
      <trkpt lat="45.12729" lon="5.89146">
        <ele>1874</ele>
        <time>2021-06-15T09:10:23Z</time>
      </trkpt>
      <trkpt lat="45.12725" lon="5.89128">
        <ele>1871</ele>
        <time>2021-06-15T09:10:41Z</time>
      </trkpt>
      <trkpt lat="45.12725" lon="5.89119">
        <ele>1869</ele>
        <time>2021-06-15T09:10:50Z</time>
      </trkpt>
      <trkpt lat="45.12719" lon="5.89099">
        <ele>1866</ele>
        <time>2021-06-15T09:11:10Z</time>
      </trkpt>
      <trkpt lat="45.12722" lon="5.89032">
        <ele>1855</ele>
        <time>2021-06-15T09:12:13Z</time>
      </trkpt>
      <trkpt lat="45.12714" lon="5.8899">
        <ele>1850</ele>
        <time>2021-06-15T09:12:54Z</time>
      </trkpt>
      <trkpt lat="45.12706" lon="5.88964">
        <ele>1845</ele>
        <time>2021-06-15T09:13:21Z</time>
      </trkpt>
      <trkpt lat="45.12699" lon="5.88968">
        <ele>1847</ele>
        <time>2021-06-15T09:13:31Z</time>
      </trkpt>
      <trkpt lat="45.12693" lon="5.88969">
        <ele>1848</ele>
        <time>2021-06-15T09:13:39Z</time>
      </trkpt>
      <trkpt lat="45.12668" lon="5.88953">
        <ele>1848</ele>
        <time>2021-06-15T09:14:16Z</time>
      </trkpt>
      <trkpt lat="45.12639" lon="5.88943">
        <ele>1852</ele>
        <time>2021-06-15T09:14:56Z</time>
      </trkpt>
      <trkpt lat="45.12621" lon="5.88939">
        <ele>1855</ele>
        <time>2021-06-15T09:15:20Z</time>
      </trkpt>
      <trkpt lat="45.12613" lon="5.88931">
        <ele>1855</ele>
        <time>2021-06-15T09:15:33Z</time>
      </trkpt>
      <trkpt lat="45.12607" lon="5.8892">
        <ele>1854</ele>
        <time>2021-06-15T09:15:46Z</time>
      </trkpt>
      <trkpt lat="45.12606" lon="5.88904">
        <ele>1850</ele>
        <time>2021-06-15T09:16:01Z</time>
      </trkpt>
      <trkpt lat="45.12605" lon="5.88894">
        <ele>1848</ele>
        <time>2021-06-15T09:16:11Z</time>
      </trkpt>
      <trkpt lat="45.12602" lon="5.88881">
        <ele>1845</ele>
        <time>2021-06-15T09:16:24Z</time>
      </trkpt>
      <trkpt lat="45.12579" lon="5.88848">
        <ele>1839</ele>
        <time>2021-06-15T09:17:07Z</time>
      </trkpt>
      <trkpt lat="45.12555" lon="5.88821">
        <ele>1833</ele>
        <time>2021-06-15T09:17:48Z</time>
      </trkpt>
      <trkpt lat="45.12533" lon="5.88805">
        <ele>1831</ele>
        <time>2021-06-15T09:18:21Z</time>
      </trkpt>
      <trkpt lat="45.12501" lon="5.88787">
        <ele>1831</ele>
        <time>2021-06-15T09:19:07Z</time>
      </trkpt>
      <trkpt lat="45.12472" lon="5.88767">
        <ele>1825</ele>
        <time>2021-06-15T09:19:50Z</time>
      </trkpt>
      <trkpt lat="45.12427" lon="5.88728">
        <ele>1816</ele>
        <time>2021-06-15T09:21:00Z</time>
      </trkpt>
      <trkpt lat="45.12414" lon="5.88703">
        <ele>1813</ele>
        <time>2021-06-15T09:21:30Z</time>
      </trkpt>
      <trkpt lat="45.12413" lon="5.88683">
        <ele>1811</ele>
        <time>2021-06-15T09:21:49Z</time>
      </trkpt>
      <trkpt lat="45.12418" lon="5.88641">
        <ele>1806</ele>
        <time>2021-06-15T09:22:29Z</time>
      </trkpt>
      <trkpt lat="45.1242" lon="5.88629">
        <ele>1805</ele>
        <time>2021-06-15T09:22:40Z</time>
      </trkpt>
      <trkpt lat="45.12426" lon="5.88586">
        <ele>1797</ele>
        <time>2021-06-15T09:23:22Z</time>
      </trkpt>
      <trkpt lat="45.12413" lon="5.8857">
        <ele>1796</ele>
        <time>2021-06-15T09:23:45Z</time>
      </trkpt>
      <trkpt lat="45.12389" lon="5.88549">
        <ele>1793</ele>
        <time>2021-06-15T09:24:22Z</time>
      </trkpt>
      <trkpt lat="45.1238" lon="5.88545">
        <ele>1793</ele>
        <time>2021-06-15T09:24:35Z</time>
      </trkpt>
      <trkpt lat="45.12369" lon="5.88548">
        <ele>1795</ele>
        <time>2021-06-15T09:24:50Z</time>
      </trkpt>
      <trkpt lat="45.12356" lon="5.88557">
        <ele>1797</ele>
        <time>2021-06-15T09:25:09Z</time>
      </trkpt>
      <trkpt lat="45.12312" lon="5.88554">
        <ele>1802</ele>
        <time>2021-06-15T09:26:08Z</time>
      </trkpt>
      <trkpt lat="45.12302" lon="5.88548">
        <ele>1802</ele>
        <time>2021-06-15T09:26:22Z</time>
      </trkpt>
      <trkpt lat="45.12283" lon="5.88532">
        <ele>1804</ele>
        <time>2021-06-15T09:26:52Z</time>
      </trkpt>
      <trkpt lat="45.12271" lon="5.88518">
        <ele>1804</ele>
        <time>2021-06-15T09:27:13Z</time>
      </trkpt>
      <trkpt lat="45.12254" lon="5.88485">
        <ele>1805</ele>
        <time>2021-06-15T09:27:51Z</time>
      </trkpt>
      <trkpt lat="45.12243" lon="5.88467">
        <ele>1806</ele>
        <time>2021-06-15T09:28:13Z</time>
      </trkpt>
      <trkpt lat="45.12223" lon="5.88445">
        <ele>1807</ele>
        <time>2021-06-15T09:28:47Z</time>
      </trkpt>
      <trkpt lat="45.12209" lon="5.88408">
        <ele>1806</ele>
        <time>2021-06-15T09:29:27Z</time>
      </trkpt>
      <trkpt lat="45.12204" lon="5.88393">
        <ele>1805</ele>
        <time>2021-06-15T09:29:42Z</time>
      </trkpt>
      <trkpt lat="45.12204" lon="5.88377">
        <ele>1803</ele>
        <time>2021-06-15T09:29:57Z</time>
      </trkpt>
      <trkpt lat="45.12206" lon="5.88365">
        <ele>1802</ele>
        <time>2021-06-15T09:30:09Z</time>
      </trkpt>
      <trkpt lat="45.12219" lon="5.88323">
        <ele>1796</ele>
        <time>2021-06-15T09:30:52Z</time>
      </trkpt>
      <trkpt lat="45.12219" lon="5.88307">
        <ele>1794</ele>
        <time>2021-06-15T09:31:07Z</time>
      </trkpt>
      <trkpt lat="45.12201" lon="5.88265">
        <ele>1792</ele>
        <time>2021-06-15T09:31:54Z</time>
      </trkpt>
      <trkpt lat="45.12168" lon="5.88226">
        <ele>1794</ele>
        <time>2021-06-15T09:32:51Z</time>
      </trkpt>
      <trkpt lat="45.1215" lon="5.88216">
        <ele>1791</ele>
        <time>2021-06-15T09:33:17Z</time>
      </trkpt>
      <trkpt lat="45.12134" lon="5.88187">
        <ele>1787</ele>
        <time>2021-06-15T09:33:51Z</time>
      </trkpt>
      <trkpt lat="45.12115" lon="5.88171">
        <ele>1785</ele>
        <time>2021-06-15T09:34:21Z</time>
      </trkpt>
      <trkpt lat="45.12106" lon="5.88167">
        <ele>1784</ele>
        <time>2021-06-15T09:34:33Z</time>
      </trkpt>
      <trkpt lat="45.12097" lon="5.88173">
        <ele>1784</ele>
        <time>2021-06-15T09:34:47Z</time>
      </trkpt>
      <trkpt lat="45.12083" lon="5.88172">
        <ele>1783</ele>
        <time>2021-06-15T09:35:05Z</time>
      </trkpt>
      <trkpt lat="45.12065" lon="5.88162">
        <ele>1784</ele>
        <time>2021-06-15T09:35:31Z</time>
      </trkpt>
      <trkpt lat="45.1204" lon="5.88168">
        <ele>1786</ele>
        <time>2021-06-15T09:36:05Z</time>
      </trkpt>
      <trkpt lat="45.12012" lon="5.88164">
        <ele>1788</ele>
        <time>2021-06-15T09:36:43Z</time>
      </trkpt>
      <trkpt lat="45.11938" lon="5.88114">
        <ele>1793</ele>
        <time>2021-06-15T09:38:32Z</time>
      </trkpt>
      <trkpt lat="45.11881" lon="5.88067">
        <ele>1792</ele>
        <time>2021-06-15T09:40:00Z</time>
      </trkpt>
      <trkpt lat="45.11863" lon="5.88069">
        <ele>1794</ele>
        <time>2021-06-15T09:40:24Z</time>
      </trkpt>
      <trkpt lat="45.11838" lon="5.88064">
        <ele>1796</ele>
        <time>2021-06-15T09:40:58Z</time>
      </trkpt>
      <trkpt lat="45.11811" lon="5.88064">
        <ele>1800</ele>
        <time>2021-06-15T09:41:34Z</time>
      </trkpt>
      <trkpt lat="45.11786" lon="5.88051">
        <ele>1801</ele>
        <time>2021-06-15T09:42:09Z</time>
      </trkpt>
      <trkpt lat="45.11769" lon="5.88035">
        <ele>1801</ele>
        <time>2021-06-15T09:42:37Z</time>
      </trkpt>
      <trkpt lat="45.11756" lon="5.88019">
        <ele>1800</ele>
        <time>2021-06-15T09:43:00Z</time>
      </trkpt>
      <trkpt lat="45.11737" lon="5.87987">
        <ele>1796</ele>
        <time>2021-06-15T09:43:39Z</time>
      </trkpt>
      <trkpt lat="45.11727" lon="5.87974">
        <ele>1795</ele>
        <time>2021-06-15T09:43:57Z</time>
      </trkpt>
      <trkpt lat="45.11652" lon="5.87957">
        <ele>1802</ele>
        <time>2021-06-15T09:45:38Z</time>
      </trkpt>
      <trkpt lat="45.11574" lon="5.87944">
        <ele>1803</ele>
        <time>2021-06-15T09:47:23Z</time>
      </trkpt>
      <trkpt lat="45.11509" lon="5.87893">
        <ele>1799</ele>
        <time>2021-06-15T09:49:02Z</time>
      </trkpt>
      <trkpt lat="45.11489" lon="5.87889">
        <ele>1799</ele>
        <time>2021-06-15T09:49:29Z</time>
      </trkpt>
      <trkpt lat="45.11477" lon="5.87891">
        <ele>1799</ele>
        <time>2021-06-15T09:49:45Z</time>
      </trkpt>
      <trkpt lat="45.11457" lon="5.87899">
        <ele>1799</ele>
        <time>2021-06-15T09:50:13Z</time>
      </trkpt>
      <trkpt lat="45.11433" lon="5.87898">
        <ele>1799</ele>
        <time>2021-06-15T09:50:45Z</time>
      </trkpt>
      <trkpt lat="45.11391" lon="5.87911">
        <ele>1798</ele>
        <time>2021-06-15T09:51:43Z</time>
      </trkpt>
      <trkpt lat="45.11369" lon="5.879">
        <ele>1796</ele>
        <time>2021-06-15T09:52:14Z</time>
      </trkpt>
      <trkpt lat="45.11364" lon="5.87891">
        <ele>1794</ele>
        <time>2021-06-15T09:52:24Z</time>
      </trkpt>
      <trkpt lat="45.1136" lon="5.87872">
        <ele>1792</ele>
        <time>2021-06-15T09:52:43Z</time>
      </trkpt>
      <trkpt lat="45.11315" lon="5.87858">
        <ele>1788</ele>
        <time>2021-06-15T09:53:45Z</time>
      </trkpt>
      <trkpt lat="45.11293" lon="5.87855">
        <ele>1787</ele>
        <time>2021-06-15T09:54:14Z</time>
      </trkpt>
      <trkpt lat="45.11247" lon="5.87857">
        <ele>1784</ele>
        <time>2021-06-15T09:55:16Z</time>
      </trkpt>
      <trkpt lat="45.11225" lon="5.87863">
        <ele>1783</ele>
        <time>2021-06-15T09:55:45Z</time>
      </trkpt>
      <trkpt lat="45.11185" lon="5.87879">
        <ele>1781</ele>
        <time>2021-06-15T09:56:41Z</time>
      </trkpt>
      <trkpt lat="45.11171" lon="5.87882">
        <ele>1780</ele>
        <time>2021-06-15T09:57:00Z</time>
      </trkpt>
      <trkpt lat="45.11163" lon="5.87878">
        <ele>1780</ele>
        <time>2021-06-15T09:57:11Z</time>
      </trkpt>
      <trkpt lat="45.11156" lon="5.87873">
        <ele>1779</ele>
        <time>2021-06-15T09:57:22Z</time>
      </trkpt>
      <trkpt lat="45.11152" lon="5.87862">
        <ele>1778</ele>
        <time>2021-06-15T09:57:33Z</time>
      </trkpt>
      <trkpt lat="45.11154" lon="5.87834">
        <ele>1775</ele>
        <time>2021-06-15T09:58:00Z</time>
      </trkpt>
      <trkpt lat="45.11162" lon="5.87806">
        <ele>1773</ele>
        <time>2021-06-15T09:58:28Z</time>
      </trkpt>
      <trkpt lat="45.11179" lon="5.87786">
        <ele>1772</ele>
        <time>2021-06-15T09:58:58Z</time>
      </trkpt>
      <trkpt lat="45.11175" lon="5.87777">
        <ele>1771</ele>
        <time>2021-06-15T09:59:08Z</time>
      </trkpt>
      <trkpt lat="45.11165" lon="5.87769">
        <ele>1770</ele>
        <time>2021-06-15T09:59:23Z</time>
      </trkpt>
      <trkpt lat="45.11143" lon="5.87757">
        <ele>1767</ele>
        <time>2021-06-15T09:59:54Z</time>
      </trkpt>
      <trkpt lat="45.11131" lon="5.87746">
        <ele>1764</ele>
        <time>2021-06-15T10:00:14Z</time>
      </trkpt>
      <trkpt lat="45.11123" lon="5.87724">
        <ele>1761</ele>
        <time>2021-06-15T10:00:37Z</time>
      </trkpt>
      <trkpt lat="45.11125" lon="5.87715">
        <ele>1760</ele>
        <time>2021-06-15T10:00:46Z</time>
      </trkpt>
      <trkpt lat="45.11122" lon="5.87705">
        <ele>1758</ele>
        <time>2021-06-15T10:00:56Z</time>
      </trkpt>
      <trkpt lat="45.11124" lon="5.87704">
        <ele>1758</ele>
        <time>2021-06-15T10:00:59Z</time>
      </trkpt>
      <trkpt lat="45.11125" lon="5.87694">
        <ele>1757</ele>
        <time>2021-06-15T10:01:08Z</time>
      </trkpt>
      <trkpt lat="45.11129" lon="5.87687">
        <ele>1756</ele>
        <time>2021-06-15T10:01:17Z</time>
      </trkpt>
      <trkpt lat="45.11126" lon="5.87683">
        <ele>1755</ele>
        <time>2021-06-15T10:01:22Z</time>
      </trkpt>
      <trkpt lat="45.11125" lon="5.87676">
        <ele>1754</ele>
        <time>2021-06-15T10:01:29Z</time>
      </trkpt>
      <trkpt lat="45.11122" lon="5.87675">
        <ele>1754</ele>
        <time>2021-06-15T10:01:33Z</time>
      </trkpt>
      <trkpt lat="45.11123" lon="5.87669">
        <ele>1753</ele>
        <time>2021-06-15T10:01:39Z</time>
      </trkpt>
      <trkpt lat="45.11123" lon="5.87657">
        <ele>1751</ele>
        <time>2021-06-15T10:01:50Z</time>
      </trkpt>
      <trkpt lat="45.1111" lon="5.87646">
        <ele>1749</ele>
        <time>2021-06-15T10:02:10Z</time>
      </trkpt>
      <trkpt lat="45.11107" lon="5.87638">
        <ele>1748</ele>
        <time>2021-06-15T10:02:19Z</time>
      </trkpt>
      <trkpt lat="45.11108" lon="5.87593">
        <ele>1742</ele>
        <time>2021-06-15T10:03:01Z</time>
      </trkpt>
      <trkpt lat="45.11088" lon="5.87592">
        <ele>1742</ele>
        <time>2021-06-15T10:03:28Z</time>
      </trkpt>
      <trkpt lat="45.11064" lon="5.87587">
        <ele>1743</ele>
        <time>2021-06-15T10:04:00Z</time>
      </trkpt>
      <trkpt lat="45.11056" lon="5.87583">
        <ele>1743</ele>
        <time>2021-06-15T10:04:12Z</time>
      </trkpt>
      <trkpt lat="45.11042" lon="5.87601">
        <ele>1745</ele>
        <time>2021-06-15T10:04:37Z</time>
      </trkpt>
      <trkpt lat="45.1104" lon="5.8761">
        <ele>1746</ele>
        <time>2021-06-15T10:04:46Z</time>
      </trkpt>
      <trkpt lat="45.11042" lon="5.87601">
        <ele>1745</ele>
        <time>2021-06-15T10:04:55Z</time>
      </trkpt>
      <trkpt lat="45.11056" lon="5.87583">
        <ele>1743</ele>
        <time>2021-06-15T10:05:20Z</time>
      </trkpt>
      <trkpt lat="45.11039" lon="5.87575">
        <ele>1743</ele>
        <time>2021-06-15T10:05:44Z</time>
      </trkpt>
      <trkpt lat="45.11026" lon="5.87572">
        <ele>1743</ele>
        <time>2021-06-15T10:06:01Z</time>
      </trkpt>
      <trkpt lat="45.11017" lon="5.87576">
        <ele>1745</ele>
        <time>2021-06-15T10:06:14Z</time>
      </trkpt>
      <trkpt lat="45.10875" lon="5.87564">
        <ele>1744</ele>
        <time>2021-06-15T10:09:24Z</time>
      </trkpt>
      <trkpt lat="45.10867" lon="5.87563">
        <ele>1744</ele>
        <time>2021-06-15T10:09:35Z</time>
      </trkpt>
      <trkpt lat="45.10853" lon="5.87555">
        <ele>1743</ele>
        <time>2021-06-15T10:09:55Z</time>
      </trkpt>
      <trkpt lat="45.10767" lon="5.87547">
        <ele>1742</ele>
        <time>2021-06-15T10:11:50Z</time>
      </trkpt>
      <trkpt lat="45.10758" lon="5.87542">
        <ele>1742</ele>
        <time>2021-06-15T10:12:03Z</time>
      </trkpt>
      <trkpt lat="45.10754" lon="5.87533">
        <ele>1740</ele>
        <time>2021-06-15T10:12:13Z</time>
      </trkpt>
      <trkpt lat="45.10749" lon="5.87542">
        <ele>1742</ele>
        <time>2021-06-15T10:12:23Z</time>
      </trkpt>
      <trkpt lat="45.10741" lon="5.87543">
        <ele>1741</ele>
        <time>2021-06-15T10:12:34Z</time>
      </trkpt>
      <trkpt lat="45.10729" lon="5.87545">
        <ele>1741</ele>
        <time>2021-06-15T10:12:50Z</time>
      </trkpt>
      <trkpt lat="45.1071" lon="5.87546">
        <ele>1741</ele>
        <time>2021-06-15T10:13:16Z</time>
      </trkpt>
      <trkpt lat="45.10676" lon="5.8755">
        <ele>1740</ele>
        <time>2021-06-15T10:14:01Z</time>
      </trkpt>
      <trkpt lat="45.1065" lon="5.87553">
        <ele>1739</ele>
        <time>2021-06-15T10:14:36Z</time>
      </trkpt>
      <trkpt lat="45.10643" lon="5.87554">
        <ele>1738</ele>
        <time>2021-06-15T10:14:45Z</time>
      </trkpt>
      <trkpt lat="45.10554" lon="5.87573">
        <ele>1733</ele>
        <time>2021-06-15T10:16:46Z</time>
      </trkpt>
      <trkpt lat="45.10552" lon="5.87573">
        <ele>1733</ele>
        <time>2021-06-15T10:16:48Z</time>
      </trkpt>
      <trkpt lat="45.10517" lon="5.87588">
        <ele>1732</ele>
        <time>2021-06-15T10:17:37Z</time>
      </trkpt>
      <trkpt lat="45.10512" lon="5.87595">
        <ele>1732</ele>
        <time>2021-06-15T10:17:46Z</time>
      </trkpt>
      <trkpt lat="45.10484" lon="5.87649">
        <ele>1733</ele>
        <time>2021-06-15T10:18:49Z</time>
      </trkpt>
      <trkpt lat="45.10474" lon="5.87671">
        <ele>1733</ele>
        <time>2021-06-15T10:19:14Z</time>
      </trkpt>
    </trkseg>
  </trk>
</gpx>